Time;durP1;ratioP1;P1;durP2;ratioP2;P2;SDS_P1;SDS_P2;PMS_P1;PMS_P2;Temp;Humidity;BMP_temperature;BMP_pressure;BME280_temperature;BME280_humidity;BME280_pressure;Samples;Min_cycle;Max_cycle;Signal;HPM_P1;HPM_P2
2024/03/09 00:01:43;;;;;;;16.35;7.43;;;;;;;;;;5010840;28;20026;-58
2024/03/09 00:04:08;;;;;;;18.67;8.32;;;;;;;;;;5010866;28;20037;-59
2024/03/09 00:06:35;;;;;;;16.30;7.97;;;;;;;;;;5006162;28;20041;-57
2024/03/09 00:09:03;;;;;;;16.83;7.45;;;;;;;;;;5003382;28;20113;-58
2024/03/09 00:11:28;;;;;;;15.77;7.72;;;;;;;;;;5002157;28;20155;-58
2024/03/09 00:13:56;;;;;;;16.92;7.38;;;;;;;;;;5003344;28;20106;-58
2024/03/09 00:16:21;;;;;;;17.52;7.40;;;;;;;;;;5004264;28;20030;-57
2024/03/09 00:18:46;;;;;;;16.53;7.73;;;;;;;;;;5001987;28;20027;-56
2024/03/09 00:21:11;;;;;;;17.53;7.17;;;;;;;;;;5002935;28;20403;-56
2024/03/09 00:23:36;;;;;;;17.03;8.40;;;;;;;;;;5003709;28;21034;-57
2024/03/09 00:26:05;;;;;;;16.40;7.80;;;;;;;;;;5004669;28;20037;-58
2024/03/09 00:28:30;;;;;;;16.58;7.38;;;;;;;;;;4998210;28;20033;-57
2024/03/09 00:30:56;;;;;;;17.67;7.53;;;;;;;;;;5003436;28;20018;-56
2024/03/09 00:33:22;;;;;;;14.73;6.53;;;;;;;;;;5004401;28;20032;-57
2024/03/09 00:35:47;;;;;;;16.25;7.18;;;;;;;;;;5004523;28;20021;-57
2024/03/09 00:38:12;;;;;;;13.82;6.13;;;;;;;;;;5005398;28;20030;-58
2024/03/09 00:40:38;;;;;;;15.83;7.07;;;;;;;;;;5000951;28;20026;-57
2024/03/09 00:43:04;;;;;;;17.98;7.90;;;;;;;;;;5005948;28;20469;-58
2024/03/09 00:45:30;;;;;;;14.40;6.72;;;;;;;;;;5004199;28;20414;-57
2024/03/09 00:47:55;;;;;;;16.17;7.95;;;;;;;;;;5003324;28;20387;-58
2024/03/09 00:50:21;;;;;;;16.08;7.20;;;;;;;;;;5001817;28;20060;-58
2024/03/09 00:52:46;;;;;;;15.63;7.53;;;;;;;;;;5003484;28;20497;-57
2024/03/09 00:55:14;;;;;;;14.98;6.53;;;;;;;;;;5003753;28;20018;-57
2024/03/09 00:57:42;;;;;;;14.77;6.00;;;;;;;;;;5007248;28;20028;-57
2024/03/09 01:00:10;;;;;;;15.82;7.50;;;;;;;;;;5004560;28;20037;-56
2024/03/09 01:02:36;;;;;;;16.75;6.93;;;;;;;;;;5001664;28;20065;-57
2024/03/09 01:05:01;;;;;;;16.85;7.93;;;;;;;;;;5002642;28;20504;-57
2024/03/09 01:07:29;;;;;;;16.70;7.73;;;;;;;;;;5007355;28;20027;-58
2024/03/09 01:09:54;;;;;;;16.63;8.05;;;;;;;;;;5001989;28;20751;-58
2024/03/09 01:12:20;;;;;;;17.50;7.70;;;;;;;;;;5004972;28;20025;-58
2024/03/09 01:14:48;;;;;;;15.43;6.47;;;;;;;;;;5004676;28;20026;-57
2024/03/09 01:17:16;;;;;;;16.05;7.65;;;;;;;;;;5003835;28;20046;-57
2024/03/09 01:19:41;;;;;;;16.08;7.30;;;;;;;;;;5017720;28;20469;-57
2024/03/09 01:22:07;;;;;;;16.60;7.18;;;;;;;;;;5001310;28;20026;-57
2024/03/09 01:24:32;;;;;;;15.30;7.25;;;;;;;;;;5006162;28;20073;-57
2024/03/09 01:26:58;;;;;;;17.87;7.47;;;;;;;;;;5006163;28;20038;-58
2024/03/09 01:29:23;;;;;;;16.67;7.30;;;;;;;;;;5002437;28;20045;-57
2024/03/09 01:31:51;;;;;;;;;;;;;;;;;;5022020;28;20054;-59
2024/03/09 01:34:16;;;;;;;16.80;7.15;;;;;;;;;;5006079;28;19914;-59
2024/03/09 01:36:43;;;;;;;16.00;7.57;;;;;;;;;;5005799;28;20470;-57
2024/03/09 01:39:08;;;;;;;16.40;7.03;;;;;;;;;;5006264;28;20053;-57
2024/03/09 01:41:35;;;;;;;17.45;7.57;;;;;;;;;;5005443;28;20014;-58
2024/03/09 01:44:00;;;;;;;17.90;8.03;;;;;;;;;;4998973;28;20034;-56
2024/03/09 01:46:25;;;;;;;17.77;7.65;;;;;;;;;;5004666;28;20017;-58
2024/03/09 01:48:51;;;;;;;15.17;7.87;;;;;;;;;;5004690;28;20034;-58
2024/03/09 01:51:16;;;;;;;19.97;7.43;;;;;;;;;;4999152;28;20044;-57
2024/03/09 01:53:42;;;;;;;16.80;7.43;;;;;;;;;;5002858;28;20453;-58
2024/03/09 01:56:11;;;;;;;15.98;7.75;;;;;;;;;;5003809;28;20363;-57
2024/03/09 01:58:37;;;;;;;15.20;6.88;;;;;;;;;;5005845;28;20378;-57
2024/03/09 02:01:15;;;;;;;15.25;7.38;;;;;;;;;;5005980;28;20018;-57
2024/03/09 02:03:41;;;;;;;16.95;8.10;;;;;;;;;;5001328;28;20025;-59
2024/03/09 02:06:06;;;;;;;15.38;6.68;;;;;;;;;;5000830;28;20014;-58
2024/03/09 02:08:31;;;;;;;17.00;7.40;;;;;;;;;;5000551;28;20022;-58
2024/03/09 02:10:59;;;;;;;15.23;6.47;;;;;;;;;;5004070;28;20026;-58
2024/03/09 02:13:26;;;;;;;15.90;7.07;;;;;;;;;;5002356;28;20026;-58
2024/03/09 02:15:52;;;;;;;15.82;7.55;;;;;;;;;;5005091;28;20026;-58
2024/03/09 02:18:20;;;;;;;18.05;7.53;;;;;;;;;;5006978;28;20018;-58
2024/03/09 02:20:50;;;;;;;16.08;7.03;;;;;;;;;;5009148;28;20029;-58
2024/03/09 02:23:16;;;;;;;16.15;6.63;;;;;;;;;;5013936;28;20034;-58
2024/03/09 02:25:41;;;;;;;17.63;7.63;;;;;;;;;;5021670;28;20018;-57
2024/03/09 02:28:06;;;;;;;15.23;7.03;;;;;;;;;;5011258;28;20061;-58
2024/03/09 02:30:32;;;;;;;15.90;7.07;;;;;;;;;;5008013;28;20525;-58
2024/03/09 02:32:58;;;;;;;14.80;6.82;;;;;;;;;;5008571;28;20056;-58
2024/03/09 02:35:23;;;;;;;16.00;7.50;;;;;;;;;;5005303;28;20046;-59
2024/03/09 02:37:48;;;;;;;15.32;7.07;;;;;;;;;;5004840;28;20108;-58
2024/03/09 02:40:13;;;;;;;15.85;7.35;;;;;;;;;;5007173;28;20050;-56
2024/03/09 02:43:03;;;;;;;16.10;6.90;;;;;;;;;;5006422;28;20022;-57
2024/03/09 02:45:25;;;;;;;17.38;6.95;;;;;;;;;;5005338;28;20026;-57
2024/03/09 02:47:50;;;;;;;15.23;6.73;;;;;;;;;;5007713;28;20603;-59
2024/03/09 02:50:15;;;;;;;14.20;6.65;;;;;;;;;;5007902;28;20422;-59
2024/03/09 02:52:40;;;;;;;15.57;6.53;;;;;;;;;;5004407;28;20068;-58
2024/03/09 02:55:05;;;;;;;13.98;6.57;;;;;;;;;;5016912;28;20014;-58
2024/03/09 02:57:31;;;;;;;15.20;6.73;;;;;;;;;;5020960;28;20026;-56
2024/03/09 02:59:56;;;;;;;15.63;6.63;;;;;;;;;;5020432;28;20453;-64
2024/03/09 03:05:05;;;;;;;15.77;7.00;;;;;;;;;;5028910;28;20036;-58
2024/03/09 03:07:30;;;;;;;14.63;6.60;;;;;;;;;;5027547;28;20026;-57
2024/03/09 03:09:57;;;;;;;13.63;6.32;;;;;;;;;;5019179;28;20036;-58
2024/03/09 03:12:23;;;;;;;14.48;6.25;;;;;;;;;;5021853;28;20022;-58
2024/03/09 03:14:50;;;;;;;14.73;6.70;;;;;;;;;;5021008;28;20030;-57
2024/03/09 03:17:15;;;;;;;17.65;7.20;;;;;;;;;;5029419;28;20016;-57
2024/03/09 03:19:40;;;;;;;14.50;6.40;;;;;;;;;;5021877;28;20030;-56
2024/03/09 03:22:05;;;;;;;12.63;5.80;;;;;;;;;;5018173;28;20422;-58
2024/03/09 03:24:31;;;;;;;14.68;6.40;;;;;;;;;;5012276;28;20034;-57
2024/03/09 03:26:57;;;;;;;13.68;6.68;;;;;;;;;;5009215;28;20030;-59
2024/03/09 03:29:24;;;;;;;16.05;6.82;;;;;;;;;;5006746;28;20041;-58
2024/03/09 03:31:49;;;;;;;16.50;6.57;;;;;;;;;;5006290;28;20032;-56
2024/03/09 03:34:15;;;;;;;14.30;5.63;;;;;;;;;;5003279;28;20389;-57
2024/03/09 03:36:42;;;;;;;15.52;6.80;;;;;;;;;;5004681;28;20032;-58
2024/03/09 03:39:12;;;;;;;13.30;6.07;;;;;;;;;;5008167;28;20058;-58
2024/03/09 03:41:37;;;;;;;15.90;7.68;;;;;;;;;;5002788;28;20034;-57
2024/03/09 03:44:03;;;;;;;14.05;6.63;;;;;;;;;;5005831;28;20033;-57
2024/03/09 03:46:29;;;;;;;14.52;6.30;;;;;;;;;;5008301;28;20477;-58
2024/03/09 03:48:55;;;;;;;14.07;6.53;;;;;;;;;;5006796;28;20037;-57
2024/03/09 03:51:20;;;;;;;13.45;6.25;;;;;;;;;;5007887;28;20028;-58
2024/03/09 03:53:45;;;;;;;12.70;6.27;;;;;;;;;;5004439;28;20009;-57
2024/03/09 03:56:11;;;;;;;13.80;6.28;;;;;;;;;;5005889;28;20021;-58
2024/03/09 03:58:37;;;;;;;13.38;6.57;;;;;;;;;;5005258;28;20064;-59
2024/03/09 04:01:02;;;;;;;15.68;6.57;;;;;;;;;;5008293;28;20650;-58
2024/03/09 04:03:31;;;;;;;13.57;5.90;;;;;;;;;;5006568;28;20121;-58
2024/03/09 04:05:57;;;;;;;13.90;6.03;;;;;;;;;;5006272;28;20026;-58
2024/03/09 04:08:22;;;;;;;15.90;6.63;;;;;;;;;;5008281;28;20026;-58
2024/03/09 04:10:48;;;;;;;13.48;6.00;;;;;;;;;;5007983;28;20026;-57
2024/03/09 04:13:13;;;;;;;15.43;6.25;;;;;;;;;;5004324;28;20401;-57
2024/03/09 04:15:41;;;;;;;14.37;6.60;;;;;;;;;;5007509;28;20023;-58
2024/03/09 04:18:06;;;;;;;14.43;6.47;;;;;;;;;;5008858;28;20022;-57
2024/03/09 04:20:34;;;;;;;13.55;5.85;;;;;;;;;;5005961;28;20025;-57
2024/03/09 04:23:02;;;;;;;14.20;6.80;;;;;;;;;;5007744;28;20057;-59
2024/03/09 04:25:27;;;;;;;15.43;6.47;;;;;;;;;;5002715;28;20402;-59
2024/03/09 04:27:55;;;;;;;15.50;6.97;;;;;;;;;;5011016;28;20026;-59
2024/03/09 04:30:23;;;;;;;12.68;5.93;;;;;;;;;;5005667;28;20022;-57
2024/03/09 04:32:48;;;;;;;13.25;6.00;;;;;;;;;;5005133;28;20101;-57
2024/03/09 04:35:13;;;;;;;13.75;6.43;;;;;;;;;;5009531;28;20030;-58
2024/03/09 04:37:38;;;;;;;17.20;6.77;;;;;;;;;;5015066;28;20030;-58
2024/03/09 04:40:14;;;;;;;16.23;6.90;;;;;;;;;;5012640;28;20015;-60
2024/03/09 04:42:39;;;;;;;14.88;6.63;;;;;;;;;;5013859;28;20095;-57
2024/03/09 04:45:05;;;;;;;16.20;7.00;;;;;;;;;;5013509;28;20108;-57
2024/03/09 04:47:32;;;;;;;14.98;6.82;;;;;;;;;;5003119;28;20025;-59
2024/03/09 04:49:58;;;;;;;17.17;6.95;;;;;;;;;;5005559;28;20025;-58
2024/03/09 04:52:23;;;;;;;15.52;6.82;;;;;;;;;;5006662;28;20030;-59
2024/03/09 04:54:48;;;;;;;16.35;6.65;;;;;;;;;;5002622;28;20038;-58
2024/03/09 04:57:24;;;;;;;16.23;6.55;;;;;;;;;;5008515;28;20015;-57
2024/03/09 04:59:49;;;;;;;16.55;6.95;;;;;;;;;;5001251;28;20486;-58
2024/03/09 05:02:15;;;;;;;17.23;7.35;;;;;;;;;;5024848;28;20040;-59
2024/03/09 05:04:40;;;;;;;16.92;7.43;;;;;;;;;;5007456;28;20437;-58
2024/03/09 05:07:05;;;;;;;16.03;7.43;;;;;;;;;;5006161;28;20052;-58
2024/03/09 05:09:30;;;;;;;17.33;7.63;;;;;;;;;;5007739;28;20017;-56
2024/03/09 05:11:56;;;;;;;17.15;8.10;;;;;;;;;;5008469;28;20517;-57
2024/03/09 05:14:22;;;;;;;18.10;8.00;;;;;;;;;;5005651;28;20030;-58
2024/03/09 05:16:47;;;;;;;17.63;7.43;;;;;;;;;;5007198;28;20031;-57
2024/03/09 05:19:12;;;;;;;16.33;7.15;;;;;;;;;;5004274;28;20456;-58
2024/03/09 05:21:38;;;;;;;18.00;7.40;;;;;;;;;;5006753;28;20378;-60
2024/03/09 05:24:04;;;;;;;17.40;8.25;;;;;;;;;;5005245;28;20504;-59
2024/03/09 05:26:32;;;;;;;15.82;7.93;;;;;;;;;;5004613;28;20475;-58
2024/03/09 05:29:00;;;;;;;18.23;7.88;;;;;;;;;;5006067;28;20026;-60
2024/03/09 05:31:26;;;;;;;16.27;7.80;;;;;;;;;;5003540;28;20026;-61
2024/03/09 05:33:51;;;;;;;17.02;7.28;;;;;;;;;;5002572;28;20041;-58
2024/03/09 05:36:16;;;;;;;17.90;8.07;;;;;;;;;;5005730;28;20026;-58
2024/03/09 05:38:44;;;;;;;15.90;7.50;;;;;;;;;;5016799;28;20049;-58
2024/03/09 05:41:09;;;;;;;18.25;8.48;;;;;;;;;;5007429;28;20030;-59
2024/03/09 05:43:34;;;;;;;17.52;8.55;;;;;;;;;;5007804;28;20030;-58
2024/03/09 05:46:03;;;;;;;16.77;7.95;;;;;;;;;;5009058;28;20104;-57
2024/03/09 05:48:28;;;;;;;15.38;7.63;;;;;;;;;;5005721;28;20025;-58
2024/03/09 05:50:54;;;;;;;14.90;7.53;;;;;;;;;;5004761;28;20492;-58
2024/03/09 05:53:19;;;;;;;18.67;8.90;;;;;;;;;;5007350;28;20021;-57
2024/03/09 05:55:44;;;;;;;16.40;8.13;;;;;;;;;;5006956;28;20052;-57
2024/03/09 05:58:09;;;;;;;18.37;8.17;;;;;;;;;;5008746;28;20073;-56
2024/03/09 06:00:36;;;;;;;16.70;7.93;;;;;;;;;;5011451;28;20041;-56
2024/03/09 06:03:03;;;;;;;17.83;8.55;;;;;;;;;;5009520;28;20021;-58
2024/03/09 06:05:30;;;;;;;19.02;8.77;;;;;;;;;;5011557;28;20018;-57
2024/03/09 06:07:55;;;;;;;19.42;8.70;;;;;;;;;;5009602;28;20038;-58
2024/03/09 06:10:20;;;;;;;18.27;8.37;;;;;;;;;;5009304;28;20049;-57
2024/03/09 06:12:49;;;;;;;20.43;9.63;;;;;;;;;;5011689;28;20495;-57
2024/03/09 06:15:19;;;;;;;19.55;9.13;;;;;;;;;;5009494;28;20030;-58
2024/03/09 06:17:46;;;;;;;19.52;9.57;;;;;;;;;;5006439;28;20462;-58
2024/03/09 06:20:13;;;;;;;18.65;8.38;;;;;;;;;;5013735;28;20045;-58
2024/03/09 06:22:42;;;;;;;17.48;8.88;;;;;;;;;;5016758;28;20022;-58
2024/03/09 06:25:07;;;;;;;22.23;9.73;;;;;;;;;;5020919;28;20014;-59
2024/03/09 06:27:32;;;;;;;18.65;8.40;;;;;;;;;;5008168;28;20509;-57
2024/03/09 06:29:59;;;;;;;21.00;8.73;;;;;;;;;;5010831;28;20045;-59
2024/03/09 06:32:28;;;;;;;19.83;9.35;;;;;;;;;;5006101;28;20029;-57
2024/03/09 06:34:53;;;;;;;18.95;9.23;;;;;;;;;;5011819;28;20025;-57
2024/03/09 06:37:18;;;;;;;19.15;9.48;;;;;;;;;;5010804;28;20022;-59
2024/03/09 06:39:43;;;;;;;17.67;9.00;;;;;;;;;;5007996;28;20081;-58
2024/03/09 06:42:09;;;;;;;19.95;9.15;;;;;;;;;;5011587;28;20029;-57
2024/03/09 06:44:34;;;;;;;19.45;9.23;;;;;;;;;;5011167;28;20086;-57
2024/03/09 06:46:59;;;;;;;18.33;9.48;;;;;;;;;;5010827;28;20022;-58
2024/03/09 06:49:25;;;;;;;17.83;8.63;;;;;;;;;;5009267;28;20030;-58
2024/03/09 06:51:50;;;;;;;19.15;9.05;;;;;;;;;;5010953;28;20017;-57
2024/03/09 06:54:15;;;;;;;17.83;9.00;;;;;;;;;;5009918;28;20140;-57
2024/03/09 06:56:41;;;;;;;20.33;9.60;;;;;;;;;;5012763;28;20041;-57
2024/03/09 06:59:06;;;;;;;20.48;10.05;;;;;;;;;;5011533;28;20029;-59
2024/03/09 07:01:31;;;;;;;19.77;9.27;;;;;;;;;;5013773;28;20034;-57
2024/03/09 07:04:01;;;;;;;18.83;9.35;;;;;;;;;;5017636;28;20453;-57
2024/03/09 07:06:26;;;;;;;19.45;9.70;;;;;;;;;;5011148;28;20034;-57
2024/03/09 07:08:52;;;;;;;18.27;9.30;;;;;;;;;;5010559;28;20037;-58
2024/03/09 07:11:19;;;;;;;19.27;9.50;;;;;;;;;;5008237;28;20018;-58
2024/03/09 07:13:45;;;;;;;18.27;8.63;;;;;;;;;;5010655;28;20018;-57
2024/03/09 07:16:10;;;;;;;19.93;10.30;;;;;;;;;;5011045;28;20080;-57
2024/03/09 07:18:37;;;;;;;20.48;9.70;;;;;;;;;;5015280;28;20371;-58
2024/03/09 07:21:05;;;;;;;20.15;9.10;;;;;;;;;;5009892;28;20037;-57
2024/03/09 07:23:30;;;;;;;20.65;9.80;;;;;;;;;;5006257;28;20029;-58
2024/03/09 07:25:55;;;;;;;19.02;9.35;;;;;;;;;;5010331;28;20014;-58
2024/03/09 07:28:21;;;;;;;17.27;9.00;;;;;;;;;;5008423;28;20037;-59
2024/03/09 07:30:46;;;;;;;20.13;9.40;;;;;;;;;;5008300;28;20025;-58
2024/03/09 07:33:11;;;;;;;18.20;9.47;;;;;;;;;;5006183;28;20022;-56
2024/03/09 07:35:36;;;;;;;21.93;8.90;;;;;;;;;;5008747;28;20381;-57
2024/03/09 07:38:04;;;;;;;18.40;9.20;;;;;;;;;;5001037;28;20034;-57
2024/03/09 07:40:33;;;;;;;20.42;9.98;;;;;;;;;;5005904;28;20056;-56
2024/03/09 07:42:58;;;;;;;19.17;9.50;;;;;;;;;;5005248;28;20064;-59
2024/03/09 07:45:25;;;;;;;19.63;10.30;;;;;;;;;;5006956;28;20041;-56
2024/03/09 07:47:51;;;;;;;16.77;9.07;;;;;;;;;;5005365;28;20385;-57
2024/03/09 07:50:19;;;;;;;20.90;9.75;;;;;;;;;;5006580;28;20093;-56
2024/03/09 07:52:46;;;;;;;20.88;10.38;;;;;;;;;;5011923;28;20474;-57
2024/03/09 07:55:11;;;;;;;20.70;9.60;;;;;;;;;;5006786;28;20030;-58
2024/03/09 07:57:37;;;;;;;19.45;10.05;;;;;;;;;;5007914;28;20045;-57
2024/03/09 08:00:09;;;;;;;18.50;9.45;;;;;;;;;;5000723;28;20482;-57
2024/03/09 08:02:34;;;;;;;18.73;9.48;;;;;;;;;;5003646;28;20101;-57
2024/03/09 08:05:03;;;;;;;19.05;9.23;;;;;;;;;;5009185;28;20101;-57
2024/03/09 08:07:32;;;;;;;21.15;10.32;;;;;;;;;;5008367;28;20022;-57
2024/03/09 08:09:57;;;;;;;20.00;9.77;;;;;;;;;;5010437;28;20083;-56
2024/03/09 08:12:22;;;;;;;23.57;9.90;;;;;;;;;;5010430;28;20029;-56
2024/03/09 08:14:47;;;;;;;19.67;10.37;;;;;;;;;;5010181;28;20026;-58
2024/03/09 08:17:14;;;;;;;20.00;10.50;;;;;;;;;;5010140;28;20045;-57
2024/03/09 08:19:39;;;;;;;;;;;;;;;;;;5011948;28;20018;-56
2024/03/09 08:22:05;;;;;;;20.77;10.55;;;;;;;;;;5008102;28;19916;-56
2024/03/09 08:24:31;;;;;;;22.38;11.32;;;;;;;;;;5011259;28;20018;-57
2024/03/09 08:26:56;;;;;;;18.52;9.95;;;;;;;;;;5008935;28;20117;-58
2024/03/09 08:29:21;;;;;;;22.57;10.03;;;;;;;;;;4998474;28;20405;-57
2024/03/09 08:31:46;;;;;;;18.83;9.13;;;;;;;;;;5011406;28;20386;-58
2024/03/09 08:34:11;;;;;;;18.67;9.60;;;;;;;;;;5012887;28;20108;-59
2024/03/09 08:36:36;;;;;;;16.52;9.10;;;;;;;;;;5013501;28;20022;-57
2024/03/09 08:39:02;;;;;;;18.67;10.18;;;;;;;;;;5015389;28;20038;-59
2024/03/09 08:41:32;;;;;;;18.50;10.27;;;;;;;;;;5013349;28;20022;-57
2024/03/09 08:43:58;;;;;;;18.83;10.80;;;;;;;;;;5010197;28;20460;-58
2024/03/09 08:46:23;;;;;;;21.88;10.05;;;;;;;;;;5008613;28;20018;-58
2024/03/09 08:48:48;;;;;;;18.60;10.10;;;;;;;;;;5011778;28;20659;-58
2024/03/09 08:51:13;;;;;;;20.08;9.68;;;;;;;;;;5011815;28;20037;-58
2024/03/09 08:53:38;;;;;;;20.40;10.97;;;;;;;;;;5012650;28;20021;-57
2024/03/09 08:56:04;;;;;;;17.88;10.05;;;;;;;;;;5011165;28;20055;-58
2024/03/09 08:58:30;;;;;;;20.63;10.30;;;;;;;;;;5012753;28;20095;-57
2024/03/09 09:00:56;;;;;;;19.40;10.02;;;;;;;;;;5007874;28;20036;-58
2024/03/09 09:03:23;;;;;;;21.48;10.88;;;;;;;;;;5003229;28;20087;-58
2024/03/09 09:05:48;;;;;;;19.77;10.27;;;;;;;;;;5008517;28;20490;-56
2024/03/09 09:08:17;;;;;;;18.17;9.65;;;;;;;;;;5009535;28;20034;-58
2024/03/09 09:10:43;;;;;;;18.92;9.57;;;;;;;;;;5010293;28;20022;-57
2024/03/09 09:13:08;;;;;;;18.45;9.85;;;;;;;;;;5006462;28;20029;-57
2024/03/09 09:15:33;;;;;;;21.27;9.63;;;;;;;;;;5010954;28;20010;-58
2024/03/09 09:17:58;;;;;;;18.25;10.02;;;;;;;;;;5011603;28;20060;-57
2024/03/09 09:20:24;;;;;;;20.02;10.55;;;;;;;;;;5014971;28;20501;-57
2024/03/09 09:22:50;;;;;;;20.27;9.82;;;;;;;;;;5013405;28;20030;-59
2024/03/09 09:25:16;;;;;;;20.17;9.75;;;;;;;;;;5012779;28;20018;-59
2024/03/09 09:27:44;;;;;;;17.80;9.90;;;;;;;;;;5007550;28;20034;-58
2024/03/09 09:30:09;;;;;;;19.52;10.77;;;;;;;;;;5003165;28;20022;-56
2024/03/09 09:32:35;;;;;;;20.00;9.67;;;;;;;;;;5012659;28;20033;-57
2024/03/09 09:35:02;;;;;;;18.00;9.03;;;;;;;;;;5011860;28;20394;-59
2024/03/09 09:37:27;;;;;;;20.73;9.88;;;;;;;;;;5012878;28;20047;-56
2024/03/09 09:39:52;;;;;;;18.07;8.90;;;;;;;;;;5015160;28;20029;-59
2024/03/09 09:42:20;;;;;;;16.60;8.70;;;;;;;;;;5011084;28;20111;-58
2024/03/09 09:44:46;;;;;;;18.38;9.85;;;;;;;;;;5011766;28;20052;-58
2024/03/09 09:47:12;;;;;;;17.40;8.70;;;;;;;;;;5012387;28;20030;-58
2024/03/09 09:49:38;;;;;;;17.13;9.18;;;;;;;;;;5007092;28;20010;-57
2024/03/09 09:52:04;;;;;;;18.92;9.07;;;;;;;;;;5010879;28;20034;-57
2024/03/09 09:54:30;;;;;;;18.42;9.23;;;;;;;;;;5010586;28;20029;-57
2024/03/09 09:56:55;;;;;;;15.52;8.18;;;;;;;;;;5011041;28;20018;-58
2024/03/09 09:59:22;;;;;;;16.50;8.70;;;;;;;;;;5011122;28;20028;-57
2024/03/09 10:01:47;;;;;;;16.77;8.82;;;;;;;;;;5010710;28;20386;-57
2024/03/09 10:04:13;;;;;;;16.80;8.57;;;;;;;;;;5003192;28;20014;-59
2024/03/09 10:06:39;;;;;;;14.43;7.43;;;;;;;;;;5009214;28;20399;-58
2024/03/09 10:09:04;;;;;;;16.42;8.65;;;;;;;;;;5009488;28;20072;-59
2024/03/09 10:11:31;;;;;;;15.18;8.07;;;;;;;;;;5010985;28;20034;-57
2024/03/09 10:14:00;;;;;;;14.77;8.20;;;;;;;;;;5011370;28;20486;-57
2024/03/09 10:16:27;;;;;;;13.27;7.28;;;;;;;;;;5009426;28;20052;-58
2024/03/09 10:18:52;;;;;;;12.95;7.35;;;;;;;;;;5005339;28;20072;-58
2024/03/09 10:21:24;;;;;;;14.88;7.30;;;;;;;;;;4997739;28;20021;-58
2024/03/09 10:24:00;;;;;;;14.07;7.22;;;;;;;;;;5004936;28;20423;-57
2024/03/09 10:26:25;;;;;;;12.45;6.50;;;;;;;;;;5001276;28;20026;-57
2024/03/09 10:28:51;;;;;;;13.52;7.22;;;;;;;;;;5012976;28;20017;-57
2024/03/09 10:31:16;;;;;;;15.02;7.45;;;;;;;;;;5002540;28;20038;-58
2024/03/09 10:33:43;;;;;;;25.75;7.25;;;;;;;;;;5012375;28;20022;-58
2024/03/09 10:36:12;;;;;;;13.32;6.50;;;;;;;;;;5012813;28;20018;-59
2024/03/09 10:38:40;;;;;;;12.77;6.00;;;;;;;;;;5011433;28;20018;-57
2024/03/09 10:41:06;;;;;;;16.58;6.47;;;;;;;;;;5012183;28;20026;-61
2024/03/09 10:43:34;;;;;;;12.25;6.90;;;;;;;;;;5024016;28;20022;-58
2024/03/09 10:46:04;;;;;;;13.25;6.70;;;;;;;;;;5019201;28;20113;-56
2024/03/09 10:48:30;;;;;;;11.57;6.20;;;;;;;;;;5016989;28;20010;-58
2024/03/09 10:50:55;;;;;;;;;;;;;;;;;;5014469;28;20014;-57
2024/03/09 10:53:53;;;;;;;12.00;6.35;;;;;;;;;;5012393;28;19916;-59
2024/03/09 10:56:22;;;;;;;15.55;6.75;;;;;;;;;;5001770;28;20108;-57
2024/03/09 10:58:48;;;;;;;13.30;7.15;;;;;;;;;;5007356;28;20018;-57
2024/03/09 11:01:17;;;;;;;16.83;6.95;;;;;;;;;;5012239;28;20503;-58
2024/03/09 11:03:45;;;;;;;14.63;7.28;;;;;;;;;;5011546;28;20022;-57
2024/03/09 11:06:11;;;;;;;13.27;6.72;;;;;;;;;;5011480;28;20022;-56
2024/03/09 11:08:36;;;;;;;13.27;6.15;;;;;;;;;;5013791;28;20018;-57
2024/03/09 11:11:02;;;;;;;12.15;6.80;;;;;;;;;;5012551;28;20444;-57
2024/03/09 11:13:30;;;;;;;13.27;7.05;;;;;;;;;;5012948;28;20018;-57
2024/03/09 11:15:55;;;;;;;14.52;7.63;;;;;;;;;;5012020;28;20455;-58
2024/03/09 11:18:21;;;;;;;13.80;7.03;;;;;;;;;;5013795;28;20045;-58
2024/03/09 11:20:59;;;;;;;12.68;6.55;;;;;;;;;;5012159;28;20457;-57
2024/03/09 11:23:24;;;;;;;13.07;6.70;;;;;;;;;;5013307;28;20444;-59
2024/03/09 11:25:54;;;;;;;14.77;6.47;;;;;;;;;;5012650;28;20018;-59
2024/03/09 11:28:27;;;;;;;13.40;6.80;;;;;;;;;;5012253;28;20041;-58
2024/03/09 11:30:56;;;;;;;12.90;6.43;;;;;;;;;;5013012;28;20045;-58
2024/03/09 11:33:21;;;;;;;14.80;6.70;;;;;;;;;;5014126;28;20017;-59
2024/03/09 11:35:46;;;;;;;12.30;6.85;;;;;;;;;;5013927;28;20444;-58
2024/03/09 11:38:18;;;;;;;13.20;6.43;;;;;;;;;;5017009;28;20025;-57
2024/03/09 11:40:43;;;;;;;15.23;7.00;;;;;;;;;;5006304;28;20108;-58
2024/03/09 11:43:14;;;;;;;13.02;7.05;;;;;;;;;;5009356;28;20100;-58
2024/03/09 11:45:39;;;;;;;12.60;6.97;;;;;;;;;;5012125;28;20121;-59
2024/03/09 11:48:05;;;;;;;14.73;7.32;;;;;;;;;;5008413;28;20108;-58
2024/03/09 11:50:30;;;;;;;14.15;7.25;;;;;;;;;;5012203;28;20024;-57
2024/03/09 11:52:56;;;;;;;12.73;6.90;;;;;;;;;;5012335;28;20018;-56
2024/03/09 11:55:21;;;;;;;13.30;6.80;;;;;;;;;;5013094;28;20410;-59
2024/03/09 11:57:52;;;;;;;12.90;7.20;;;;;;;;;;5012373;28;20014;-57
2024/03/09 12:00:17;;;;;;;13.45;6.75;;;;;;;;;;5012553;28;20148;-57
2024/03/09 12:02:43;;;;;;;13.63;7.00;;;;;;;;;;5017406;28;20100;-59
2024/03/09 12:05:15;;;;;;;12.98;7.22;;;;;;;;;;5011439;28;20026;-58
2024/03/09 12:07:40;;;;;;;;;;;;;;;;;;5013913;28;20116;-58
2024/03/09 12:10:06;;;;;;;13.77;7.03;;;;;;;;;;5012983;28;20035;-58
2024/03/09 12:12:33;;;;;;;13.40;7.30;;;;;;;;;;5013603;28;20521;-58
2024/03/09 12:15:00;;;;;;;13.23;6.82;;;;;;;;;;5007417;28;20026;-57
2024/03/09 12:17:26;;;;;;;13.90;7.18;;;;;;;;;;5008301;28;20029;-58
2024/03/09 12:19:51;;;;;;;14.00;7.30;;;;;;;;;;5010307;28;20042;-59
2024/03/09 12:22:16;;;;;;;14.37;7.33;;;;;;;;;;5009003;28;20026;-59
2024/03/09 12:24:42;;;;;;;13.17;7.30;;;;;;;;;;5006182;28;20053;-57
2024/03/09 12:27:09;;;;;;;13.18;7.45;;;;;;;;;;5000322;28;20038;-58
2024/03/09 12:29:34;;;;;;;13.90;7.72;;;;;;;;;;5005296;28;20058;-59
2024/03/09 12:32:00;;;;;;;13.73;7.30;;;;;;;;;;5005181;28;20111;-59
2024/03/09 12:34:26;;;;;;;13.15;7.32;;;;;;;;;;5008210;28;20025;-60
2024/03/09 12:36:52;;;;;;;13.57;7.40;;;;;;;;;;5007773;28;20017;-58
2024/03/09 12:39:17;;;;;;;12.25;7.18;;;;;;;;;;5010030;28;20129;-58
2024/03/09 12:41:43;;;;;;;13.80;7.18;;;;;;;;;;5002229;28;20033;-58
2024/03/09 12:44:10;;;;;;;12.80;7.25;;;;;;;;;;5009338;28;20108;-57
2024/03/09 12:46:36;;;;;;;14.35;7.50;;;;;;;;;;5009930;28;20083;-58
2024/03/09 12:49:08;;;;;;;13.30;7.32;;;;;;;;;;5009311;28;20049;-59
2024/03/09 12:51:33;;;;;;;13.27;7.32;;;;;;;;;;5010204;28;20045;-59
2024/03/09 12:54:02;;;;;;;13.23;7.07;;;;;;;;;;5009119;28;20057;-56
2024/03/09 12:56:30;;;;;;;12.52;6.95;;;;;;;;;;5008466;28;20468;-57
2024/03/09 12:59:02;;;;;;;13.98;7.88;;;;;;;;;;5008204;28;20034;-58
2024/03/09 13:01:30;;;;;;;12.30;6.60;;;;;;;;;;5005357;28;20037;-57
2024/03/09 13:03:55;;;;;;;12.05;7.03;;;;;;;;;;5007932;28;20136;-59
2024/03/09 13:06:22;;;;;;;14.10;7.80;;;;;;;;;;4998695;28;20110;-58
2024/03/09 13:08:47;;;;;;;14.70;7.88;;;;;;;;;;5010146;28;20448;-57
2024/03/09 13:11:12;;;;;;;14.23;7.70;;;;;;;;;;5008517;28;20458;-59
2024/03/09 13:13:37;;;;;;;14.15;7.45;;;;;;;;;;5007203;28;20104;-60
2024/03/09 13:16:04;;;;;;;13.60;7.25;;;;;;;;;;5008404;28;20100;-59
2024/03/09 13:18:31;;;;;;;12.60;7.40;;;;;;;;;;5008602;28;20084;-58
2024/03/09 13:20:56;;;;;;;14.20;7.63;;;;;;;;;;5005073;28;20360;-58
2024/03/09 13:23:21;;;;;;;15.10;7.88;;;;;;;;;;5008356;28;20033;-58
2024/03/09 13:25:49;;;;;;;13.97;7.80;;;;;;;;;;5007031;28;20026;-58
2024/03/09 13:28:14;;;;;;;13.20;7.68;;;;;;;;;;5007888;28;20083;-58
2024/03/09 13:30:40;;;;;;;13.93;8.07;;;;;;;;;;5000122;28;20014;-58
2024/03/09 13:33:09;;;;;;;15.27;7.50;;;;;;;;;;5004697;28;20108;-59
2024/03/09 13:35:34;;;;;;;14.52;7.95;;;;;;;;;;5007288;28;20117;-57
2024/03/09 13:37:59;;;;;;;15.00;8.25;;;;;;;;;;5008075;28;20683;-60
2024/03/09 13:40:29;;;;;;;14.55;8.73;;;;;;;;;;5006581;28;20045;-57
2024/03/09 13:42:57;;;;;;;13.45;7.90;;;;;;;;;;5002016;28;20139;-58
2024/03/09 13:45:23;;;;;;;15.18;8.52;;;;;;;;;;5004622;28;20810;-58
2024/03/09 13:47:50;;;;;;;17.10;8.73;;;;;;;;;;5007073;28;20045;-59
2024/03/09 13:50:20;;;;;;;16.70;8.73;;;;;;;;;;5009851;28;20655;-58
2024/03/09 13:52:47;;;;;;;17.27;8.43;;;;;;;;;;5012651;28;20040;-59
2024/03/09 13:55:16;;;;;;;14.48;8.10;;;;;;;;;;4991427;28;20080;-58
2024/03/09 13:57:41;;;;;;;15.23;8.75;;;;;;;;;;5027806;28;20026;-58
2024/03/09 14:00:07;;;;;;;16.07;9.30;;;;;;;;;;5007015;28;20027;-58
2024/03/09 14:02:36;;;;;;;14.40;8.23;;;;;;;;;;4999281;28;20481;-59
2024/03/09 14:05:05;;;;;;;15.20;8.02;;;;;;;;;;4988487;28;20395;-64
2024/03/09 14:07:30;;;;;;;14.65;8.20;;;;;;;;;;4993744;28;20027;-58
2024/03/09 14:09:56;;;;;;;15.80;9.02;;;;;;;;;;5006471;28;20712;-57
2024/03/09 14:12:21;;;;;;;14.57;8.65;;;;;;;;;;5007655;28;20073;-60
2024/03/09 14:14:52;;;;;;;15.05;8.65;;;;;;;;;;5009015;28;20026;-57
2024/03/09 14:17:18;;;;;;;15.00;8.80;;;;;;;;;;5022279;28;20093;-58
2024/03/09 14:19:44;;;;;;;17.02;8.88;;;;;;;;;;4998691;28;20029;-58
2024/03/09 14:22:11;;;;;;;16.30;9.15;;;;;;;;;;5009240;28;20022;-57
2024/03/09 14:24:37;;;;;;;18.10;10.52;;;;;;;;;;5006809;28;20026;-57
2024/03/09 14:27:02;;;;;;;22.70;12.35;;;;;;;;;;5010204;28;20037;-58
2024/03/09 14:29:28;;;;;;;17.45;9.75;;;;;;;;;;5010770;28;20022;-58